sensor_id;sensor_type;location;lat;lon;timestamp;temperature;humidity
11666;DHT22;5889;51.350;6.708;2023-12-04T00:00:08;1.10;99.90
11666;DHT22;5889;51.350;6.708;2023-12-04T00:02:36;1.10;99.90
11666;DHT22;5889;51.350;6.708;2023-12-04T00:05:05;1.10;99.90
11666;DHT22;5889;51.350;6.708;2023-12-04T00:07:32;1.10;99.90
11666;DHT22;5889;51.350;6.708;2023-12-04T00:09:59;1.10;99.90
11666;DHT22;5889;51.350;6.708;2023-12-04T00:12:25;1.10;99.90
11666;DHT22;5889;51.350;6.708;2023-12-04T00:14:53;1.10;99.90
11666;DHT22;5889;51.350;6.708;2023-12-04T00:17:19;1.10;99.90
11666;DHT22;5889;51.350;6.708;2023-12-04T00:19:49;1.10;99.90
11666;DHT22;5889;51.350;6.708;2023-12-04T00:22:16;1.10;99.90
11666;DHT22;5889;51.350;6.708;2023-12-04T00:24:45;1.10;99.90
11666;DHT22;5889;51.350;6.708;2023-12-04T00:27:12;1.10;99.90
11666;DHT22;5889;51.350;6.708;2023-12-04T00:29:39;1.10;99.90
11666;DHT22;5889;51.350;6.708;2023-12-04T00:32:06;1.20;99.90
11666;DHT22;5889;51.350;6.708;2023-12-04T00:34:33;1.20;99.90
11666;DHT22;5889;51.350;6.708;2023-12-04T00:37:01;1.20;99.90
11666;DHT22;5889;51.350;6.708;2023-12-04T00:39:28;1.20;99.90
11666;DHT22;5889;51.350;6.708;2023-12-04T00:41:55;1.20;99.90
11666;DHT22;5889;51.350;6.708;2023-12-04T00:44:22;1.20;99.90
11666;DHT22;5889;51.350;6.708;2023-12-04T00:46:49;1.20;99.90
11666;DHT22;5889;51.350;6.708;2023-12-04T00:49:16;1.20;99.90
11666;DHT22;5889;51.350;6.708;2023-12-04T00:51:43;1.20;99.90
11666;DHT22;5889;51.350;6.708;2023-12-04T00:54:12;1.20;99.90
11666;DHT22;5889;51.350;6.708;2023-12-04T00:56:38;1.20;99.90
11666;DHT22;5889;51.350;6.708;2023-12-04T00:59:06;1.20;99.90
11666;DHT22;5889;51.350;6.708;2023-12-04T01:01:33;1.20;99.90
11666;DHT22;5889;51.350;6.708;2023-12-04T01:04:00;1.20;99.90
11666;DHT22;5889;51.350;6.708;2023-12-04T01:06:27;1.20;99.90
11666;DHT22;5889;51.350;6.708;2023-12-04T01:08:55;1.30;99.90
11666;DHT22;5889;51.350;6.708;2023-12-04T01:11:23;1.30;99.90
11666;DHT22;5889;51.350;6.708;2023-12-04T01:13:50;1.30;99.90
11666;DHT22;5889;51.350;6.708;2023-12-04T01:16:17;1.30;99.90
11666;DHT22;5889;51.350;6.708;2023-12-04T01:18:44;1.30;99.90
11666;DHT22;5889;51.350;6.708;2023-12-04T01:21:11;1.20;99.90
11666;DHT22;5889;51.350;6.708;2023-12-04T01:23:38;1.30;99.90
11666;DHT22;5889;51.350;6.708;2023-12-04T01:26:05;1.30;99.90
11666;DHT22;5889;51.350;6.708;2023-12-04T01:28:36;1.30;99.90
11666;DHT22;5889;51.350;6.708;2023-12-04T01:31:03;1.30;99.90
11666;DHT22;5889;51.350;6.708;2023-12-04T01:33:30;1.30;99.90
11666;DHT22;5889;51.350;6.708;2023-12-04T01:35:57;1.30;99.90
11666;DHT22;5889;51.350;6.708;2023-12-04T01:38:24;1.30;99.90
11666;DHT22;5889;51.350;6.708;2023-12-04T01:40:51;1.30;99.90
11666;DHT22;5889;51.350;6.708;2023-12-04T01:43:18;1.30;99.90
11666;DHT22;5889;51.350;6.708;2023-12-04T01:45:46;1.30;99.90
11666;DHT22;5889;51.350;6.708;2023-12-04T01:48:14;1.30;99.90
11666;DHT22;5889;51.350;6.708;2023-12-04T01:50:41;1.30;99.90
11666;DHT22;5889;51.350;6.708;2023-12-04T01:53:08;1.30;99.90
11666;DHT22;5889;51.350;6.708;2023-12-04T01:55:37;1.30;99.90
11666;DHT22;5889;51.350;6.708;2023-12-04T01:58:04;1.30;99.90
11666;DHT22;5889;51.350;6.708;2023-12-04T02:00:31;1.30;99.90
11666;DHT22;5889;51.350;6.708;2023-12-04T02:03:00;1.30;99.90
11666;DHT22;5889;51.350;6.708;2023-12-04T02:05:28;1.30;99.90
11666;DHT22;5889;51.350;6.708;2023-12-04T02:07:55;1.30;99.90
11666;DHT22;5889;51.350;6.708;2023-12-04T02:10:22;1.30;99.90
11666;DHT22;5889;51.350;6.708;2023-12-04T02:12:49;1.30;99.90
11666;DHT22;5889;51.350;6.708;2023-12-04T02:15:16;1.30;99.90
11666;DHT22;5889;51.350;6.708;2023-12-04T02:17:43;1.30;99.90
11666;DHT22;5889;51.350;6.708;2023-12-04T02:20:14;1.30;99.90
11666;DHT22;5889;51.350;6.708;2023-12-04T02:22:41;1.30;99.90
11666;DHT22;5889;51.350;6.708;2023-12-04T02:25:10;1.30;99.90
11666;DHT22;5889;51.350;6.708;2023-12-04T02:27:40;1.30;99.90
11666;DHT22;5889;51.350;6.708;2023-12-04T02:30:12;1.40;99.90
11666;DHT22;5889;51.350;6.708;2023-12-04T02:32:44;1.40;99.90
11666;DHT22;5889;51.350;6.708;2023-12-04T02:35:14;1.40;99.90
11666;DHT22;5889;51.350;6.708;2023-12-04T02:37:42;1.40;99.90
11666;DHT22;5889;51.350;6.708;2023-12-04T02:40:11;1.40;99.90
11666;DHT22;5889;51.350;6.708;2023-12-04T02:42:39;1.40;99.90
11666;DHT22;5889;51.350;6.708;2023-12-04T02:45:07;1.40;99.90
11666;DHT22;5889;51.350;6.708;2023-12-04T02:47:34;1.40;99.90
11666;DHT22;5889;51.350;6.708;2023-12-04T02:50:01;1.40;99.90
11666;DHT22;5889;51.350;6.708;2023-12-04T02:52:28;1.40;99.90
11666;DHT22;5889;51.350;6.708;2023-12-04T02:54:55;1.40;99.90
11666;DHT22;5889;51.350;6.708;2023-12-04T02:57:23;1.40;99.90
11666;DHT22;5889;51.350;6.708;2023-12-04T02:59:50;1.40;99.90
11666;DHT22;5889;51.350;6.708;2023-12-04T03:02:17;1.40;99.90
11666;DHT22;5889;51.350;6.708;2023-12-04T03:04:44;1.40;99.90
11666;DHT22;5889;51.350;6.708;2023-12-04T03:07:11;1.40;99.90
11666;DHT22;5889;51.350;6.708;2023-12-04T03:09:38;1.40;99.90
11666;DHT22;5889;51.350;6.708;2023-12-04T03:12:06;1.40;99.90
11666;DHT22;5889;51.350;6.708;2023-12-04T03:14:34;1.40;99.90
11666;DHT22;5889;51.350;6.708;2023-12-04T03:17:01;1.40;99.90
11666;DHT22;5889;51.350;6.708;2023-12-04T03:19:28;1.40;99.90
11666;DHT22;5889;51.350;6.708;2023-12-04T03:21:55;1.40;99.90
11666;DHT22;5889;51.350;6.708;2023-12-04T03:24:22;1.50;99.90
11666;DHT22;5889;51.350;6.708;2023-12-04T03:26:49;1.50;99.90
11666;DHT22;5889;51.350;6.708;2023-12-04T03:29:15;1.50;99.90
11666;DHT22;5889;51.350;6.708;2023-12-04T03:31:44;1.50;99.90
11666;DHT22;5889;51.350;6.708;2023-12-04T03:34:11;1.50;99.90
11666;DHT22;5889;51.350;6.708;2023-12-04T03:36:38;1.50;99.90
11666;DHT22;5889;51.350;6.708;2023-12-04T03:39:05;1.50;99.90
11666;DHT22;5889;51.350;6.708;2023-12-04T03:41:32;1.50;99.90
11666;DHT22;5889;51.350;6.708;2023-12-04T03:43:58;1.50;99.90
11666;DHT22;5889;51.350;6.708;2023-12-04T03:46:25;1.50;99.90
11666;DHT22;5889;51.350;6.708;2023-12-04T03:48:54;1.50;99.90
11666;DHT22;5889;51.350;6.708;2023-12-04T03:51:21;1.50;99.90
11666;DHT22;5889;51.350;6.708;2023-12-04T03:53:48;1.50;99.90
11666;DHT22;5889;51.350;6.708;2023-12-04T03:56:15;1.50;99.90
11666;DHT22;5889;51.350;6.708;2023-12-04T03:58:42;1.50;99.90
11666;DHT22;5889;51.350;6.708;2023-12-04T04:01:36;1.50;99.90
11666;DHT22;5889;51.350;6.708;2023-12-04T04:04:05;1.50;99.90
11666;DHT22;5889;51.350;6.708;2023-12-04T04:06:32;1.50;99.90
11666;DHT22;5889;51.350;6.708;2023-12-04T04:08:59;1.50;99.90
11666;DHT22;5889;51.350;6.708;2023-12-04T04:11:26;1.50;99.90
11666;DHT22;5889;51.350;6.708;2023-12-04T04:13:53;1.50;99.90
11666;DHT22;5889;51.350;6.708;2023-12-04T04:16:20;1.50;99.90
11666;DHT22;5889;51.350;6.708;2023-12-04T04:18:47;1.50;99.90
11666;DHT22;5889;51.350;6.708;2023-12-04T04:21:15;1.50;99.90
11666;DHT22;5889;51.350;6.708;2023-12-04T04:23:42;1.50;99.90
11666;DHT22;5889;51.350;6.708;2023-12-04T04:26:09;1.50;99.90
11666;DHT22;5889;51.350;6.708;2023-12-04T04:28:36;1.50;99.90
11666;DHT22;5889;51.350;6.708;2023-12-04T04:31:03;1.50;99.90
11666;DHT22;5889;51.350;6.708;2023-12-04T04:33:30;1.50;99.90
11666;DHT22;5889;51.350;6.708;2023-12-04T04:35:57;1.50;99.90
11666;DHT22;5889;51.350;6.708;2023-12-04T04:38:25;1.40;99.90
11666;DHT22;5889;51.350;6.708;2023-12-04T04:40:52;1.50;99.90
11666;DHT22;5889;51.350;6.708;2023-12-04T04:43:19;1.50;99.90
11666;DHT22;5889;51.350;6.708;2023-12-04T04:45:46;1.50;99.90
11666;DHT22;5889;51.350;6.708;2023-12-04T04:48:13;1.50;99.90
11666;DHT22;5889;51.350;6.708;2023-12-04T04:50:40;1.50;99.90
11666;DHT22;5889;51.350;6.708;2023-12-04T04:53:07;1.60;99.90
11666;DHT22;5889;51.350;6.708;2023-12-04T04:55:35;1.60;99.90
11666;DHT22;5889;51.350;6.708;2023-12-04T04:58:02;1.50;99.90
11666;DHT22;5889;51.350;6.708;2023-12-04T05:00:29;1.50;99.90
11666;DHT22;5889;51.350;6.708;2023-12-04T05:02:56;1.50;99.90
11666;DHT22;5889;51.350;6.708;2023-12-04T05:05:23;1.50;99.90
11666;DHT22;5889;51.350;6.708;2023-12-04T05:07:50;1.50;99.90
11666;DHT22;5889;51.350;6.708;2023-12-04T05:10:17;1.50;99.90
11666;DHT22;5889;51.350;6.708;2023-12-04T05:12:45;1.50;99.90
11666;DHT22;5889;51.350;6.708;2023-12-04T05:15:12;1.50;99.90
11666;DHT22;5889;51.350;6.708;2023-12-04T05:17:40;1.50;99.90
11666;DHT22;5889;51.350;6.708;2023-12-04T05:20:08;1.40;99.90
11666;DHT22;5889;51.350;6.708;2023-12-04T05:22:35;1.40;99.90
11666;DHT22;5889;51.350;6.708;2023-12-04T05:25:03;1.40;99.90
11666;DHT22;5889;51.350;6.708;2023-12-04T05:27:30;1.40;99.90
11666;DHT22;5889;51.350;6.708;2023-12-04T05:29:58;1.40;99.90
11666;DHT22;5889;51.350;6.708;2023-12-04T05:32:25;1.40;99.90
11666;DHT22;5889;51.350;6.708;2023-12-04T05:34:52;1.40;99.90
11666;DHT22;5889;51.350;6.708;2023-12-04T05:37:21;1.40;99.90
11666;DHT22;5889;51.350;6.708;2023-12-04T05:39:48;1.40;99.90
11666;DHT22;5889;51.350;6.708;2023-12-04T05:42:15;1.40;99.90
11666;DHT22;5889;51.350;6.708;2023-12-04T05:44:42;1.30;99.90
11666;DHT22;5889;51.350;6.708;2023-12-04T05:47:11;1.30;99.90
11666;DHT22;5889;51.350;6.708;2023-12-04T05:49:38;1.40;99.90
11666;DHT22;5889;51.350;6.708;2023-12-04T05:52:05;1.40;99.90
11666;DHT22;5889;51.350;6.708;2023-12-04T05:54:32;1.40;99.90
11666;DHT22;5889;51.350;6.708;2023-12-04T05:57:04;1.40;99.90
11666;DHT22;5889;51.350;6.708;2023-12-04T05:59:31;1.40;99.90
11666;DHT22;5889;51.350;6.708;2023-12-04T06:01:59;1.40;99.90
11666;DHT22;5889;51.350;6.708;2023-12-04T06:04:28;1.40;99.90
11666;DHT22;5889;51.350;6.708;2023-12-04T06:06:55;1.40;99.90
11666;DHT22;5889;51.350;6.708;2023-12-04T06:09:22;1.40;99.90
11666;DHT22;5889;51.350;6.708;2023-12-04T06:11:49;1.40;99.90
11666;DHT22;5889;51.350;6.708;2023-12-04T06:14:16;1.40;99.90
11666;DHT22;5889;51.350;6.708;2023-12-04T06:16:43;1.40;99.90
11666;DHT22;5889;51.350;6.708;2023-12-04T06:19:09;1.40;99.90
11666;DHT22;5889;51.350;6.708;2023-12-04T06:21:38;1.40;99.90
11666;DHT22;5889;51.350;6.708;2023-12-04T06:24:06;1.50;99.90
11666;DHT22;5889;51.350;6.708;2023-12-04T06:26:36;1.50;99.90
11666;DHT22;5889;51.350;6.708;2023-12-04T06:29:07;1.40;99.90
11666;DHT22;5889;51.350;6.708;2023-12-04T06:31:34;1.40;99.90
11666;DHT22;5889;51.350;6.708;2023-12-04T06:34:02;1.50;99.90
11666;DHT22;5889;51.350;6.708;2023-12-04T06:36:31;1.40;99.90
11666;DHT22;5889;51.350;6.708;2023-12-04T06:39:04;1.50;99.90
11666;DHT22;5889;51.350;6.708;2023-12-04T06:41:34;1.40;99.90
11666;DHT22;5889;51.350;6.708;2023-12-04T06:44:01;1.40;99.90
11666;DHT22;5889;51.350;6.708;2023-12-04T06:46:29;1.50;99.90
11666;DHT22;5889;51.350;6.708;2023-12-04T06:48:59;1.40;99.90
11666;DHT22;5889;51.350;6.708;2023-12-04T06:51:26;1.40;99.90
11666;DHT22;5889;51.350;6.708;2023-12-04T06:53:53;1.40;99.90
11666;DHT22;5889;51.350;6.708;2023-12-04T06:56:21;1.40;99.90
11666;DHT22;5889;51.350;6.708;2023-12-04T06:58:48;1.40;99.90
11666;DHT22;5889;51.350;6.708;2023-12-04T07:01:15;1.40;99.90
11666;DHT22;5889;51.350;6.708;2023-12-04T07:03:42;1.40;99.90
11666;DHT22;5889;51.350;6.708;2023-12-04T07:06:10;1.40;99.90
11666;DHT22;5889;51.350;6.708;2023-12-04T07:08:37;1.40;99.90
11666;DHT22;5889;51.350;6.708;2023-12-04T07:11:04;1.40;99.90
11666;DHT22;5889;51.350;6.708;2023-12-04T07:13:34;1.40;99.90
11666;DHT22;5889;51.350;6.708;2023-12-04T07:16:05;1.40;99.90
11666;DHT22;5889;51.350;6.708;2023-12-04T07:18:32;1.40;99.90
11666;DHT22;5889;51.350;6.708;2023-12-04T07:21:00;1.50;99.90
11666;DHT22;5889;51.350;6.708;2023-12-04T07:23:27;1.50;99.90
11666;DHT22;5889;51.350;6.708;2023-12-04T07:25:54;1.40;99.90
11666;DHT22;5889;51.350;6.708;2023-12-04T07:28:21;1.50;99.90
11666;DHT22;5889;51.350;6.708;2023-12-04T07:30:49;1.50;99.90
11666;DHT22;5889;51.350;6.708;2023-12-04T07:33:16;1.50;99.90
11666;DHT22;5889;51.350;6.708;2023-12-04T07:35:43;1.50;99.90
11666;DHT22;5889;51.350;6.708;2023-12-04T07:38:10;1.60;99.90
11666;DHT22;5889;51.350;6.708;2023-12-04T07:40:38;1.60;99.90
11666;DHT22;5889;51.350;6.708;2023-12-04T07:43:05;1.60;99.90
11666;DHT22;5889;51.350;6.708;2023-12-04T07:45:32;1.60;99.90
11666;DHT22;5889;51.350;6.708;2023-12-04T07:48:01;1.60;99.90
11666;DHT22;5889;51.350;6.708;2023-12-04T07:50:28;1.60;99.90
11666;DHT22;5889;51.350;6.708;2023-12-04T07:52:55;1.60;99.90
11666;DHT22;5889;51.350;6.708;2023-12-04T07:55:22;1.60;99.90
11666;DHT22;5889;51.350;6.708;2023-12-04T07:57:49;1.60;99.90
11666;DHT22;5889;51.350;6.708;2023-12-04T08:00:17;1.60;99.90
11666;DHT22;5889;51.350;6.708;2023-12-04T08:02:44;1.70;99.90
11666;DHT22;5889;51.350;6.708;2023-12-04T08:05:13;1.70;99.90
11666;DHT22;5889;51.350;6.708;2023-12-04T08:07:40;1.70;99.90
11666;DHT22;5889;51.350;6.708;2023-12-04T08:10:08;1.70;99.90
11666;DHT22;5889;51.350;6.708;2023-12-04T08:12:35;1.70;99.90
11666;DHT22;5889;51.350;6.708;2023-12-04T08:15:03;1.80;99.90
11666;DHT22;5889;51.350;6.708;2023-12-04T08:17:30;1.80;99.90
11666;DHT22;5889;51.350;6.708;2023-12-04T08:19:57;1.80;99.90
11666;DHT22;5889;51.350;6.708;2023-12-04T08:22:25;1.80;99.90
11666;DHT22;5889;51.350;6.708;2023-12-04T08:24:52;1.90;99.90
11666;DHT22;5889;51.350;6.708;2023-12-04T08:27:19;1.90;99.90
11666;DHT22;5889;51.350;6.708;2023-12-04T08:29:46;2.00;99.90
11666;DHT22;5889;51.350;6.708;2023-12-04T08:32:13;2.00;99.90
11666;DHT22;5889;51.350;6.708;2023-12-04T08:34:40;2.00;99.90
11666;DHT22;5889;51.350;6.708;2023-12-04T08:37:09;2.10;99.90
11666;DHT22;5889;51.350;6.708;2023-12-04T08:39:37;2.10;99.90
11666;DHT22;5889;51.350;6.708;2023-12-04T08:42:05;2.10;99.90
11666;DHT22;5889;51.350;6.708;2023-12-04T08:44:34;2.20;99.90
11666;DHT22;5889;51.350;6.708;2023-12-04T08:47:00;2.20;99.90
11666;DHT22;5889;51.350;6.708;2023-12-04T08:49:28;2.30;99.90
11666;DHT22;5889;51.350;6.708;2023-12-04T08:51:55;2.30;99.90
11666;DHT22;5889;51.350;6.708;2023-12-04T08:54:22;2.30;99.90
11666;DHT22;5889;51.350;6.708;2023-12-04T08:56:50;2.30;99.90
11666;DHT22;5889;51.350;6.708;2023-12-04T08:59:17;2.40;99.90
11666;DHT22;5889;51.350;6.708;2023-12-04T09:01:44;2.40;99.90
11666;DHT22;5889;51.350;6.708;2023-12-04T09:04:11;2.50;99.90
11666;DHT22;5889;51.350;6.708;2023-12-04T09:06:38;2.50;99.90
11666;DHT22;5889;51.350;6.708;2023-12-04T09:09:05;2.50;99.90
11666;DHT22;5889;51.350;6.708;2023-12-04T09:11:32;2.50;99.90
11666;DHT22;5889;51.350;6.708;2023-12-04T09:14:00;2.50;99.90
11666;DHT22;5889;51.350;6.708;2023-12-04T09:16:27;2.50;99.90
11666;DHT22;5889;51.350;6.708;2023-12-04T09:18:54;2.50;99.90
11666;DHT22;5889;51.350;6.708;2023-12-04T09:21:21;2.50;99.90
11666;DHT22;5889;51.350;6.708;2023-12-04T09:23:48;2.50;99.90
11666;DHT22;5889;51.350;6.708;2023-12-04T09:26:15;2.60;99.90
11666;DHT22;5889;51.350;6.708;2023-12-04T09:28:42;2.60;99.90
11666;DHT22;5889;51.350;6.708;2023-12-04T09:31:11;2.60;99.90
11666;DHT22;5889;51.350;6.708;2023-12-04T09:33:39;2.70;99.90
11666;DHT22;5889;51.350;6.708;2023-12-04T09:36:06;2.60;99.90
11666;DHT22;5889;51.350;6.708;2023-12-04T09:38:34;2.60;99.90
11666;DHT22;5889;51.350;6.708;2023-12-04T09:41:02;2.70;99.90
11666;DHT22;5889;51.350;6.708;2023-12-04T09:43:31;2.70;99.90
11666;DHT22;5889;51.350;6.708;2023-12-04T09:45:58;2.80;99.90
11666;DHT22;5889;51.350;6.708;2023-12-04T09:48:27;2.80;99.90
11666;DHT22;5889;51.350;6.708;2023-12-04T09:50:55;2.90;99.90
11666;DHT22;5889;51.350;6.708;2023-12-04T09:53:24;2.90;99.90
11666;DHT22;5889;51.350;6.708;2023-12-04T09:55:53;2.90;99.90
11666;DHT22;5889;51.350;6.708;2023-12-04T09:58:26;2.90;99.90
11666;DHT22;5889;51.350;6.708;2023-12-04T10:00:54;2.90;99.90
11666;DHT22;5889;51.350;6.708;2023-12-04T10:03:21;2.90;99.90
11666;DHT22;5889;51.350;6.708;2023-12-04T10:05:50;2.90;99.90
11666;DHT22;5889;51.350;6.708;2023-12-04T10:08:19;2.90;99.90
11666;DHT22;5889;51.350;6.708;2023-12-04T10:10:47;2.90;99.90
11666;DHT22;5889;51.350;6.708;2023-12-04T10:13:14;2.90;99.90
11666;DHT22;5889;51.350;6.708;2023-12-04T10:15:46;2.90;99.90
11666;DHT22;5889;51.350;6.708;2023-12-04T10:18:24;3.00;99.90
11666;DHT22;5889;51.350;6.708;2023-12-04T10:20:54;2.90;99.90
11666;DHT22;5889;51.350;6.708;2023-12-04T10:23:21;2.90;99.90
11666;DHT22;5889;51.350;6.708;2023-12-04T10:25:49;2.90;99.90
11666;DHT22;5889;51.350;6.708;2023-12-04T10:28:17;3.00;99.90
11666;DHT22;5889;51.350;6.708;2023-12-04T10:30:45;3.00;99.90
11666;DHT22;5889;51.350;6.708;2023-12-04T10:33:12;3.00;99.90
11666;DHT22;5889;51.350;6.708;2023-12-04T10:35:40;3.00;99.90
11666;DHT22;5889;51.350;6.708;2023-12-04T10:38:10;3.00;99.90
11666;DHT22;5889;51.350;6.708;2023-12-04T10:40:40;3.00;99.90
11666;DHT22;5889;51.350;6.708;2023-12-04T10:43:11;3.00;99.90
11666;DHT22;5889;51.350;6.708;2023-12-04T10:45:39;3.10;99.90
11666;DHT22;5889;51.350;6.708;2023-12-04T10:48:08;3.00;99.90
11666;DHT22;5889;51.350;6.708;2023-12-04T10:50:36;3.10;99.90
11666;DHT22;5889;51.350;6.708;2023-12-04T10:53:04;3.10;99.90
11666;DHT22;5889;51.350;6.708;2023-12-04T10:55:34;3.10;99.90
11666;DHT22;5889;51.350;6.708;2023-12-04T10:58:05;3.10;99.90
11666;DHT22;5889;51.350;6.708;2023-12-04T11:00:33;3.10;99.90
11666;DHT22;5889;51.350;6.708;2023-12-04T11:03:04;3.10;99.90
11666;DHT22;5889;51.350;6.708;2023-12-04T11:05:33;3.10;99.90
11666;DHT22;5889;51.350;6.708;2023-12-04T11:08:03;3.10;99.90
11666;DHT22;5889;51.350;6.708;2023-12-04T11:10:35;3.20;99.90
11666;DHT22;5889;51.350;6.708;2023-12-04T11:13:07;3.20;99.90
11666;DHT22;5889;51.350;6.708;2023-12-04T11:15:38;3.20;99.90
11666;DHT22;5889;51.350;6.708;2023-12-04T11:18:07;3.20;99.90
11666;DHT22;5889;51.350;6.708;2023-12-04T11:20:41;3.20;99.90
11666;DHT22;5889;51.350;6.708;2023-12-04T11:23:09;3.20;99.90
11666;DHT22;5889;51.350;6.708;2023-12-04T11:25:38;3.30;99.90
11666;DHT22;5889;51.350;6.708;2023-12-04T11:28:09;3.30;99.90
11666;DHT22;5889;51.350;6.708;2023-12-04T11:30:37;3.30;99.90
11666;DHT22;5889;51.350;6.708;2023-12-04T11:33:05;3.30;99.90
11666;DHT22;5889;51.350;6.708;2023-12-04T11:35:33;3.30;99.90
11666;DHT22;5889;51.350;6.708;2023-12-04T11:38:00;3.30;99.90
11666;DHT22;5889;51.350;6.708;2023-12-04T11:40:27;3.30;99.90
11666;DHT22;5889;51.350;6.708;2023-12-04T11:42:57;3.30;99.90
11666;DHT22;5889;51.350;6.708;2023-12-04T11:45:24;3.30;99.90
11666;DHT22;5889;51.350;6.708;2023-12-04T11:47:54;3.40;99.90
11666;DHT22;5889;51.350;6.708;2023-12-04T11:50:22;3.40;99.90
11666;DHT22;5889;51.350;6.708;2023-12-04T11:52:51;3.40;99.90
11666;DHT22;5889;51.350;6.708;2023-12-04T11:55:20;3.40;99.90
11666;DHT22;5889;51.350;6.708;2023-12-04T11:57:49;3.40;99.90
11666;DHT22;5889;51.350;6.708;2023-12-04T12:00:22;3.40;99.90
11666;DHT22;5889;51.350;6.708;2023-12-04T12:03:03;3.40;99.90
11666;DHT22;5889;51.350;6.708;2023-12-04T12:05:32;3.40;99.90
11666;DHT22;5889;51.350;6.708;2023-12-04T12:08:01;3.30;99.90
11666;DHT22;5889;51.350;6.708;2023-12-04T12:10:28;3.30;99.90
11666;DHT22;5889;51.350;6.708;2023-12-04T12:12:56;3.20;99.90
11666;DHT22;5889;51.350;6.708;2023-12-04T12:15:24;3.30;99.90
11666;DHT22;5889;51.350;6.708;2023-12-04T12:17:52;3.30;99.90
11666;DHT22;5889;51.350;6.708;2023-12-04T12:20:19;3.30;99.90
11666;DHT22;5889;51.350;6.708;2023-12-04T12:22:48;3.30;99.90
11666;DHT22;5889;51.350;6.708;2023-12-04T12:25:15;3.30;99.90
11666;DHT22;5889;51.350;6.708;2023-12-04T12:27:43;3.30;99.90
11666;DHT22;5889;51.350;6.708;2023-12-04T12:30:11;3.30;99.90
11666;DHT22;5889;51.350;6.708;2023-12-04T12:32:40;3.30;99.90
11666;DHT22;5889;51.350;6.708;2023-12-04T12:35:07;3.30;99.90
11666;DHT22;5889;51.350;6.708;2023-12-04T12:37:35;3.30;99.90
11666;DHT22;5889;51.350;6.708;2023-12-04T12:40:04;3.30;99.90
11666;DHT22;5889;51.350;6.708;2023-12-04T12:42:31;3.30;99.90
11666;DHT22;5889;51.350;6.708;2023-12-04T12:45:01;3.30;99.90
11666;DHT22;5889;51.350;6.708;2023-12-04T12:47:29;3.30;99.90
11666;DHT22;5889;51.350;6.708;2023-12-04T12:49:57;3.30;99.90
11666;DHT22;5889;51.350;6.708;2023-12-04T12:52:27;3.20;99.90
11666;DHT22;5889;51.350;6.708;2023-12-04T12:54:54;3.30;99.90
11666;DHT22;5889;51.350;6.708;2023-12-04T12:57:21;3.30;99.90
11666;DHT22;5889;51.350;6.708;2023-12-04T12:59:48;3.30;99.90
11666;DHT22;5889;51.350;6.708;2023-12-04T13:02:15;3.30;99.90
11666;DHT22;5889;51.350;6.708;2023-12-04T13:04:43;3.30;99.90
11666;DHT22;5889;51.350;6.708;2023-12-04T13:07:12;3.20;99.90
11666;DHT22;5889;51.350;6.708;2023-12-04T13:09:39;3.20;99.90
11666;DHT22;5889;51.350;6.708;2023-12-04T13:12:07;3.30;99.90
11666;DHT22;5889;51.350;6.708;2023-12-04T13:14:35;3.30;99.90
11666;DHT22;5889;51.350;6.708;2023-12-04T13:17:03;3.30;99.90
11666;DHT22;5889;51.350;6.708;2023-12-04T13:19:30;3.30;99.90
11666;DHT22;5889;51.350;6.708;2023-12-04T13:22:00;3.30;99.90
11666;DHT22;5889;51.350;6.708;2023-12-04T13:24:28;3.30;99.90
11666;DHT22;5889;51.350;6.708;2023-12-04T13:26:55;3.30;99.90
11666;DHT22;5889;51.350;6.708;2023-12-04T13:29:23;3.30;99.90
11666;DHT22;5889;51.350;6.708;2023-12-04T13:31:50;3.20;99.90
11666;DHT22;5889;51.350;6.708;2023-12-04T13:34:17;3.20;99.90
11666;DHT22;5889;51.350;6.708;2023-12-04T13:36:44;3.20;99.90
11666;DHT22;5889;51.350;6.708;2023-12-04T13:39:11;3.20;99.90
11666;DHT22;5889;51.350;6.708;2023-12-04T13:41:47;3.20;99.90
11666;DHT22;5889;51.350;6.708;2023-12-04T13:44:31;3.20;99.90
11666;DHT22;5889;51.350;6.708;2023-12-04T13:46:59;3.20;99.90
11666;DHT22;5889;51.350;6.708;2023-12-04T13:49:26;3.20;99.90
11666;DHT22;5889;51.350;6.708;2023-12-04T13:51:53;3.20;99.90
11666;DHT22;5889;51.350;6.708;2023-12-04T13:54:20;3.10;99.90
11666;DHT22;5889;51.350;6.708;2023-12-04T13:56:55;3.10;99.90
11666;DHT22;5889;51.350;6.708;2023-12-04T13:59:23;3.20;99.90
11666;DHT22;5889;51.350;6.708;2023-12-04T14:01:50;3.20;99.90
11666;DHT22;5889;51.350;6.708;2023-12-04T14:04:20;3.20;99.90
11666;DHT22;5889;51.350;6.708;2023-12-04T14:06:49;3.20;99.90
11666;DHT22;5889;51.350;6.708;2023-12-04T14:09:16;3.20;99.90
11666;DHT22;5889;51.350;6.708;2023-12-04T14:11:43;3.20;99.90
11666;DHT22;5889;51.350;6.708;2023-12-04T14:14:12;3.20;99.90
11666;DHT22;5889;51.350;6.708;2023-12-04T14:16:39;3.20;99.90
11666;DHT22;5889;51.350;6.708;2023-12-04T14:19:07;3.30;99.90
11666;DHT22;5889;51.350;6.708;2023-12-04T14:21:34;3.30;99.90
11666;DHT22;5889;51.350;6.708;2023-12-04T14:24:01;3.30;99.90
11666;DHT22;5889;51.350;6.708;2023-12-04T14:26:28;3.30;99.90
11666;DHT22;5889;51.350;6.708;2023-12-04T14:28:55;3.30;99.90
11666;DHT22;5889;51.350;6.708;2023-12-04T14:31:24;3.30;99.90
11666;DHT22;5889;51.350;6.708;2023-12-04T14:33:52;3.20;99.90
11666;DHT22;5889;51.350;6.708;2023-12-04T14:36:19;3.20;99.90
11666;DHT22;5889;51.350;6.708;2023-12-04T14:38:46;3.30;99.90
11666;DHT22;5889;51.350;6.708;2023-12-04T14:41:13;3.30;99.90
11666;DHT22;5889;51.350;6.708;2023-12-04T14:43:40;3.30;99.90
11666;DHT22;5889;51.350;6.708;2023-12-04T14:46:08;3.30;99.90
11666;DHT22;5889;51.350;6.708;2023-12-04T14:48:38;3.30;99.90
11666;DHT22;5889;51.350;6.708;2023-12-04T14:51:07;3.30;99.90
11666;DHT22;5889;51.350;6.708;2023-12-04T14:53:36;3.30;99.90
11666;DHT22;5889;51.350;6.708;2023-12-04T14:56:11;3.30;99.90
11666;DHT22;5889;51.350;6.708;2023-12-04T14:58:56;3.30;99.90
11666;DHT22;5889;51.350;6.708;2023-12-04T15:01:46;3.30;99.90
11666;DHT22;5889;51.350;6.708;2023-12-04T15:04:32;3.30;99.90
11666;DHT22;5889;51.350;6.708;2023-12-04T15:07:22;3.30;99.90
11666;DHT22;5889;51.350;6.708;2023-12-04T15:10:03;3.30;99.90
11666;DHT22;5889;51.350;6.708;2023-12-04T15:12:53;3.30;99.90
11666;DHT22;5889;51.350;6.708;2023-12-04T15:15:41;3.30;99.90
11666;DHT22;5889;51.350;6.708;2023-12-04T15:18:28;3.30;99.90
11666;DHT22;5889;51.350;6.708;2023-12-04T15:21:04;3.20;99.90
11666;DHT22;5889;51.350;6.708;2023-12-04T15:23:31;3.20;99.90
11666;DHT22;5889;51.350;6.708;2023-12-04T15:25:57;3.20;99.90
11666;DHT22;5889;51.350;6.708;2023-12-04T15:28:24;3.20;99.90
11666;DHT22;5889;51.350;6.708;2023-12-04T15:30:50;3.20;99.90
11666;DHT22;5889;51.350;6.708;2023-12-04T15:33:17;3.20;99.90
11666;DHT22;5889;51.350;6.708;2023-12-04T15:35:43;3.20;99.90
11666;DHT22;5889;51.350;6.708;2023-12-04T15:38:12;3.20;99.90
11666;DHT22;5889;51.350;6.708;2023-12-04T15:40:38;3.20;99.90
11666;DHT22;5889;51.350;6.708;2023-12-04T15:43:04;3.10;99.90
11666;DHT22;5889;51.350;6.708;2023-12-04T15:45:32;3.10;99.90
11666;DHT22;5889;51.350;6.708;2023-12-04T15:47:57;3.10;99.90
11666;DHT22;5889;51.350;6.708;2023-12-04T15:50:24;3.00;99.90
11666;DHT22;5889;51.350;6.708;2023-12-04T15:52:51;3.00;99.90
11666;DHT22;5889;51.350;6.708;2023-12-04T15:55:19;2.90;99.90
11666;DHT22;5889;51.350;6.708;2023-12-04T15:57:46;2.80;99.90
11666;DHT22;5889;51.350;6.708;2023-12-04T16:00:20;2.70;99.90
11666;DHT22;5889;51.350;6.708;2023-12-04T16:02:46;2.70;99.90
11666;DHT22;5889;51.350;6.708;2023-12-04T16:05:13;2.70;99.90
11666;DHT22;5889;51.350;6.708;2023-12-04T16:07:41;2.70;99.90